sensor_id;sensor_type;location;lat;lon;timestamp;P1;durP1;ratioP1;P2;durP2;ratioP2
46613;SDS011;32338;50.430;6.806;2023-11-21T00:01:06;8.48;;;1.20;;
46613;SDS011;32338;50.430;6.806;2023-11-21T00:03:35;2.85;;;1.10;;
46613;SDS011;32338;50.430;6.806;2023-11-21T00:06:01;9.02;;;1.30;;
46613;SDS011;32338;50.430;6.806;2023-11-21T00:08:28;2.83;;;1.27;;
46613;SDS011;32338;50.430;6.806;2023-11-21T00:10:55;1.73;;;0.95;;
46613;SDS011;32338;50.430;6.806;2023-11-21T00:13:21;0.90;;;0.60;;
46613;SDS011;32338;50.430;6.806;2023-11-21T00:15:48;2.55;;;0.80;;
46613;SDS011;32338;50.430;6.806;2023-11-21T00:18:15;5.78;;;1.00;;
46613;SDS011;32338;50.430;6.806;2023-11-21T00:20:43;4.22;;;0.82;;
46613;SDS011;32338;50.430;6.806;2023-11-21T00:23:10;1.00;;;0.90;;
46613;SDS011;32338;50.430;6.806;2023-11-21T00:25:36;0.77;;;0.77;;
46613;SDS011;32338;50.430;6.806;2023-11-21T00:28:03;1.27;;;0.95;;
46613;SDS011;32338;50.430;6.806;2023-11-21T00:30:30;1.65;;;0.82;;
46613;SDS011;32338;50.430;6.806;2023-11-21T00:32:58;1.08;;;0.98;;
46613;SDS011;32338;50.430;6.806;2023-11-21T00:35:24;1.73;;;1.05;;
46613;SDS011;32338;50.430;6.806;2023-11-21T00:37:52;1.58;;;1.35;;
46613;SDS011;32338;50.430;6.806;2023-11-21T00:40:19;2.67;;;1.45;;
46613;SDS011;32338;50.430;6.806;2023-11-21T00:42:46;1.98;;;1.77;;
46613;SDS011;32338;50.430;6.806;2023-11-21T00:45:12;4.05;;;2.10;;
46613;SDS011;32338;50.430;6.806;2023-11-21T00:47:39;3.08;;;1.95;;
46613;SDS011;32338;50.430;6.806;2023-11-21T00:50:06;2.40;;;2.15;;
46613;SDS011;32338;50.430;6.806;2023-11-21T00:52:33;2.38;;;2.17;;
46613;SDS011;32338;50.430;6.806;2023-11-21T00:55:02;2.40;;;2.20;;
46613;SDS011;32338;50.430;6.806;2023-11-21T00:57:29;6.97;;;2.50;;
46613;SDS011;32338;50.430;6.806;2023-11-21T00:59:55;3.03;;;2.35;;
46613;SDS011;32338;50.430;6.806;2023-11-21T01:02:22;6.55;;;3.03;;
46613;SDS011;32338;50.430;6.806;2023-11-21T01:04:49;5.50;;;2.05;;
46613;SDS011;32338;50.430;6.806;2023-11-21T01:07:15;5.18;;;2.28;;
46613;SDS011;32338;50.430;6.806;2023-11-21T01:09:42;3.70;;;1.75;;
46613;SDS011;32338;50.430;6.806;2023-11-21T01:12:10;1.80;;;1.55;;
46613;SDS011;32338;50.430;6.806;2023-11-21T01:14:37;2.42;;;1.45;;
46613;SDS011;32338;50.430;6.806;2023-11-21T01:17:04;4.70;;;1.48;;
46613;SDS011;32338;50.430;6.806;2023-11-21T01:19:31;1.60;;;1.50;;
46613;SDS011;32338;50.430;6.806;2023-11-21T01:21:57;2.25;;;1.33;;
46613;SDS011;32338;50.430;6.806;2023-11-21T01:24:24;2.00;;;1.23;;
46613;SDS011;32338;50.430;6.806;2023-11-21T01:26:51;2.20;;;1.65;;
46613;SDS011;32338;50.430;6.806;2023-11-21T01:29:19;4.38;;;2.15;;
46613;SDS011;32338;50.430;6.806;2023-11-21T01:31:45;2.55;;;2.03;;
46613;SDS011;32338;50.430;6.806;2023-11-21T01:34:12;4.18;;;2.30;;
46613;SDS011;32338;50.430;6.806;2023-11-21T01:36:39;3.20;;;2.00;;
46613;SDS011;32338;50.430;6.806;2023-11-21T01:39:05;2.38;;;2.13;;
46613;SDS011;32338;50.430;6.806;2023-11-21T01:41:33;5.00;;;2.30;;
46613;SDS011;32338;50.430;6.806;2023-11-21T01:44:00;2.53;;;2.33;;
46613;SDS011;32338;50.430;6.806;2023-11-21T01:46:28;3.38;;;2.75;;
46613;SDS011;32338;50.430;6.806;2023-11-21T01:48:55;4.35;;;2.95;;
46613;SDS011;32338;50.430;6.806;2023-11-21T01:51:22;3.58;;;3.17;;
46613;SDS011;32338;50.430;6.806;2023-11-21T01:53:49;4.13;;;3.22;;
46613;SDS011;32338;50.430;6.806;2023-11-21T01:56:16;3.88;;;3.47;;
46613;SDS011;32338;50.430;6.806;2023-11-21T01:58:43;6.65;;;3.90;;
46613;SDS011;32338;50.430;6.806;2023-11-21T02:01:11;4.97;;;3.85;;
46613;SDS011;32338;50.430;6.806;2023-11-21T02:03:40;4.13;;;3.72;;
46613;SDS011;32338;50.430;6.806;2023-11-21T02:06:07;8.75;;;4.03;;
46613;SDS011;32338;50.430;6.806;2023-11-21T02:08:34;4.55;;;4.13;;
46613;SDS011;32338;50.430;6.806;2023-11-21T02:11:02;4.53;;;3.75;;
46613;SDS011;32338;50.430;6.806;2023-11-21T02:13:29;10.18;;;4.25;;
46613;SDS011;32338;50.430;6.806;2023-11-21T02:15:56;8.75;;;3.85;;
46613;SDS011;32338;50.430;6.806;2023-11-21T02:18:23;4.15;;;3.75;;
46613;SDS011;32338;50.430;6.806;2023-11-21T02:20:51;10.00;;;3.90;;
46613;SDS011;32338;50.430;6.806;2023-11-21T02:23:19;5.28;;;3.60;;
46613;SDS011;32338;50.430;6.806;2023-11-21T02:25:45;7.65;;;3.47;;
46613;SDS011;32338;50.430;6.806;2023-11-21T02:28:13;6.53;;;3.60;;
46613;SDS011;32338;50.430;6.806;2023-11-21T02:30:41;5.60;;;3.03;;
46613;SDS011;32338;50.430;6.806;2023-11-21T02:33:08;4.32;;;3.92;;
46613;SDS011;32338;50.430;6.806;2023-11-21T02:35:35;4.57;;;3.28;;
46613;SDS011;32338;50.430;6.806;2023-11-21T02:38:03;8.55;;;3.67;;
46613;SDS011;32338;50.430;6.806;2023-11-21T02:40:31;5.38;;;4.20;;
46613;SDS011;32338;50.430;6.806;2023-11-21T02:42:57;5.97;;;4.75;;
46613;SDS011;32338;50.430;6.806;2023-11-21T02:45:24;6.82;;;4.15;;
46613;SDS011;32338;50.430;6.806;2023-11-21T02:51:12;6.28;;;4.53;;
46613;SDS011;32338;50.430;6.806;2023-11-21T02:53:40;9.05;;;4.45;;
46613;SDS011;32338;50.430;6.806;2023-11-21T02:56:08;6.20;;;4.13;;
46613;SDS011;32338;50.430;6.806;2023-11-21T02:58:35;5.22;;;4.40;;
46613;SDS011;32338;50.430;6.806;2023-11-21T03:01:01;6.15;;;4.70;;
46613;SDS011;32338;50.430;6.806;2023-11-21T03:03:30;6.68;;;4.55;;
46613;SDS011;32338;50.430;6.806;2023-11-21T03:05:57;6.75;;;5.05;;
46613;SDS011;32338;50.430;6.806;2023-11-21T03:08:23;6.10;;;4.97;;
46613;SDS011;32338;50.430;6.806;2023-11-21T03:10:50;11.60;;;5.70;;
46613;SDS011;32338;50.430;6.806;2023-11-21T03:13:18;6.53;;;5.75;;
46613;SDS011;32338;50.430;6.806;2023-11-21T03:15:45;10.02;;;5.93;;
46613;SDS011;32338;50.430;6.806;2023-11-21T03:18:12;5.57;;;5.07;;
46613;SDS011;32338;50.430;6.806;2023-11-21T03:20:39;9.40;;;5.80;;
46613;SDS011;32338;50.430;6.806;2023-11-21T03:23:06;7.40;;;5.82;;
46613;SDS011;32338;50.430;6.806;2023-11-21T03:25:33;9.68;;;6.13;;
46613;SDS011;32338;50.430;6.806;2023-11-21T03:27:59;11.30;;;6.82;;
46613;SDS011;32338;50.430;6.806;2023-11-21T03:30:27;8.77;;;6.93;;
46613;SDS011;32338;50.430;6.806;2023-11-21T03:32:54;8.38;;;7.00;;
46613;SDS011;32338;50.430;6.806;2023-11-21T03:35:20;9.18;;;6.82;;
46613;SDS011;32338;50.430;6.806;2023-11-21T03:37:47;9.57;;;6.47;;
46613;SDS011;32338;50.430;6.806;2023-11-21T03:40:14;13.02;;;6.75;;
46613;SDS011;32338;50.430;6.806;2023-11-21T03:42:40;7.68;;;6.82;;
46613;SDS011;32338;50.430;6.806;2023-11-21T03:45:07;11.70;;;6.57;;
46613;SDS011;32338;50.430;6.806;2023-11-21T03:47:36;9.15;;;7.10;;
46613;SDS011;32338;50.430;6.806;2023-11-21T03:50:03;10.63;;;7.18;;
46613;SDS011;32338;50.430;6.806;2023-11-21T03:52:30;15.02;;;8.02;;
46613;SDS011;32338;50.430;6.806;2023-11-21T03:54:56;13.25;;;7.65;;
46613;SDS011;32338;50.430;6.806;2023-11-21T03:57:23;9.95;;;7.65;;
46613;SDS011;32338;50.430;6.806;2023-11-21T03:59:49;11.30;;;8.27;;
46613;SDS011;32338;50.430;6.806;2023-11-21T04:02:16;11.68;;;7.97;;
46613;SDS011;32338;50.430;6.806;2023-11-21T04:04:44;12.80;;;7.55;;
46613;SDS011;32338;50.430;6.806;2023-11-21T04:07:11;13.38;;;7.85;;
46613;SDS011;32338;50.430;6.806;2023-11-21T04:09:38;11.43;;;8.60;;
46613;SDS011;32338;50.430;6.806;2023-11-21T04:12:06;11.82;;;7.97;;
46613;SDS011;32338;50.430;6.806;2023-11-21T04:14:34;11.73;;;7.63;;
46613;SDS011;32338;50.430;6.806;2023-11-21T04:17:00;12.25;;;7.65;;
46613;SDS011;32338;50.430;6.806;2023-11-21T04:19:29;11.18;;;8.38;;
46613;SDS011;32338;50.430;6.806;2023-11-21T04:21:57;16.70;;;9.43;;
46613;SDS011;32338;50.430;6.806;2023-11-21T04:24:23;15.60;;;8.10;;
46613;SDS011;32338;50.430;6.806;2023-11-21T04:26:50;22.67;;;8.93;;
46613;SDS011;32338;50.430;6.806;2023-11-21T04:29:17;15.63;;;8.10;;
46613;SDS011;32338;50.430;6.806;2023-11-21T04:31:44;17.88;;;8.70;;
46613;SDS011;32338;50.430;6.806;2023-11-21T04:34:11;16.27;;;9.05;;
46613;SDS011;32338;50.430;6.806;2023-11-21T04:36:38;16.20;;;8.13;;
46613;SDS011;32338;50.430;6.806;2023-11-21T04:39:06;12.68;;;8.00;;
46613;SDS011;32338;50.430;6.806;2023-11-21T04:41:33;10.40;;;7.72;;
46613;SDS011;32338;50.430;6.806;2023-11-21T04:44:01;15.20;;;7.28;;
46613;SDS011;32338;50.430;6.806;2023-11-21T04:46:28;12.80;;;7.57;;
46613;SDS011;32338;50.430;6.806;2023-11-21T04:48:54;11.57;;;7.80;;
46613;SDS011;32338;50.430;6.806;2023-11-21T04:51:21;10.60;;;6.63;;
46613;SDS011;32338;50.430;6.806;2023-11-21T04:53:48;14.13;;;8.23;;
46613;SDS011;32338;50.430;6.806;2023-11-21T04:56:18;12.90;;;6.55;;
46613;SDS011;32338;50.430;6.806;2023-11-21T04:58:45;10.77;;;6.72;;
46613;SDS011;32338;50.430;6.806;2023-11-21T05:01:12;9.00;;;6.13;;
46613;SDS011;32338;50.430;6.806;2023-11-21T05:03:38;9.25;;;5.72;;
46613;SDS011;32338;50.430;6.806;2023-11-21T05:06:05;9.88;;;5.95;;
46613;SDS011;32338;50.430;6.806;2023-11-21T05:08:32;9.40;;;5.60;;
46613;SDS011;32338;50.430;6.806;2023-11-21T05:10:59;10.50;;;4.63;;
46613;SDS011;32338;50.430;6.806;2023-11-21T05:13:27;10.48;;;4.20;;
46613;SDS011;32338;50.430;6.806;2023-11-21T05:15:53;5.43;;;3.75;;
46613;SDS011;32338;50.430;6.806;2023-11-21T05:18:20;10.73;;;5.13;;
46613;SDS011;32338;50.430;6.806;2023-11-21T05:20:47;6.57;;;4.63;;
46613;SDS011;32338;50.430;6.806;2023-11-21T05:23:14;11.40;;;5.05;;
46613;SDS011;32338;50.430;6.806;2023-11-21T05:25:40;10.25;;;4.65;;
46613;SDS011;32338;50.430;6.806;2023-11-21T05:28:07;6.57;;;4.93;;
46613;SDS011;32338;50.430;6.806;2023-11-21T05:30:35;8.98;;;5.60;;
46613;SDS011;32338;50.430;6.806;2023-11-21T05:33:03;7.97;;;4.80;;
46613;SDS011;32338;50.430;6.806;2023-11-21T05:35:30;7.63;;;4.07;;
46613;SDS011;32338;50.430;6.806;2023-11-21T05:37:56;6.68;;;3.63;;
46613;SDS011;32338;50.430;6.806;2023-11-21T05:40:23;7.38;;;4.13;;
46613;SDS011;32338;50.430;6.806;2023-11-21T05:42:51;7.57;;;4.00;;
46613;SDS011;32338;50.430;6.806;2023-11-21T05:45:18;10.32;;;5.22;;
46613;SDS011;32338;50.430;6.806;2023-11-21T05:47:46;9.35;;;5.35;;
46613;SDS011;32338;50.430;6.806;2023-11-21T05:50:13;4.93;;;3.67;;
46613;SDS011;32338;50.430;6.806;2023-11-21T05:52:42;8.77;;;4.55;;
46613;SDS011;32338;50.430;6.806;2023-11-21T05:55:10;8.25;;;4.57;;
46613;SDS011;32338;50.430;6.806;2023-11-21T05:57:38;11.57;;;4.90;;
46613;SDS011;32338;50.430;6.806;2023-11-21T06:00:07;7.63;;;4.60;;
46613;SDS011;32338;50.430;6.806;2023-11-21T06:02:46;6.43;;;4.07;;
46613;SDS011;32338;50.430;6.806;2023-11-21T06:05:15;7.03;;;4.28;;
46613;SDS011;32338;50.430;6.806;2023-11-21T06:07:43;9.45;;;4.63;;
46613;SDS011;32338;50.430;6.806;2023-11-21T06:10:10;7.18;;;4.90;;
46613;SDS011;32338;50.430;6.806;2023-11-21T06:12:39;6.40;;;4.47;;
46613;SDS011;32338;50.430;6.806;2023-11-21T06:15:08;11.73;;;5.07;;
46613;SDS011;32338;50.430;6.806;2023-11-21T06:17:38;6.22;;;4.88;;
46613;SDS011;32338;50.430;6.806;2023-11-21T06:20:08;6.55;;;4.55;;
46613;SDS011;32338;50.430;6.806;2023-11-21T06:22:39;8.48;;;4.50;;
46613;SDS011;32338;50.430;6.806;2023-11-21T06:25:07;10.07;;;5.30;;
46613;SDS011;32338;50.430;6.806;2023-11-21T06:27:36;6.80;;;4.50;;
46613;SDS011;32338;50.430;6.806;2023-11-21T06:30:04;10.70;;;5.75;;
46613;SDS011;32338;50.430;6.806;2023-11-21T06:32:34;14.73;;;5.15;;
46613;SDS011;32338;50.430;6.806;2023-11-21T06:35:01;12.40;;;4.95;;
46613;SDS011;32338;50.430;6.806;2023-11-21T06:37:30;7.95;;;4.47;;
46613;SDS011;32338;50.430;6.806;2023-11-21T06:39:57;8.88;;;5.30;;
46613;SDS011;32338;50.430;6.806;2023-11-21T06:42:25;9.70;;;4.57;;
46613;SDS011;32338;50.430;6.806;2023-11-21T06:44:52;8.90;;;5.22;;
46613;SDS011;32338;50.430;6.806;2023-11-21T06:47:19;8.93;;;4.85;;
46613;SDS011;32338;50.430;6.806;2023-11-21T06:49:46;13.18;;;4.68;;
46613;SDS011;32338;50.430;6.806;2023-11-21T06:52:14;7.70;;;4.40;;
46613;SDS011;32338;50.430;6.806;2023-11-21T06:54:42;11.88;;;5.05;;
46613;SDS011;32338;50.430;6.806;2023-11-21T06:57:08;8.10;;;4.30;;
46613;SDS011;32338;50.430;6.806;2023-11-21T06:59:35;8.98;;;4.35;;
46613;SDS011;32338;50.430;6.806;2023-11-21T07:02:01;12.52;;;5.20;;
46613;SDS011;32338;50.430;6.806;2023-11-21T07:04:29;11.45;;;5.10;;
46613;SDS011;32338;50.430;6.806;2023-11-21T07:06:56;12.55;;;5.85;;
46613;SDS011;32338;50.430;6.806;2023-11-21T07:09:23;11.98;;;5.53;;
46613;SDS011;32338;50.430;6.806;2023-11-21T07:11:52;12.13;;;4.85;;
46613;SDS011;32338;50.430;6.806;2023-11-21T07:14:19;8.90;;;4.72;;
46613;SDS011;32338;50.430;6.806;2023-11-21T07:16:46;11.43;;;5.53;;
46613;SDS011;32338;50.430;6.806;2023-11-21T07:19:13;8.40;;;4.35;;
46613;SDS011;32338;50.430;6.806;2023-11-21T07:21:40;9.40;;;5.18;;
46613;SDS011;32338;50.430;6.806;2023-11-21T07:24:07;8.52;;;4.57;;
46613;SDS011;32338;50.430;6.806;2023-11-21T07:26:34;7.38;;;4.95;;
46613;SDS011;32338;50.430;6.806;2023-11-21T07:29:02;8.95;;;4.97;;
46613;SDS011;32338;50.430;6.806;2023-11-21T07:31:29;8.90;;;5.07;;
46613;SDS011;32338;50.430;6.806;2023-11-21T07:33:56;9.73;;;4.43;;
46613;SDS011;32338;50.430;6.806;2023-11-21T07:36:23;10.95;;;4.78;;
46613;SDS011;32338;50.430;6.806;2023-11-21T07:38:50;12.60;;;5.22;;
46613;SDS011;32338;50.430;6.806;2023-11-21T07:41:17;11.90;;;5.20;;
46613;SDS011;32338;50.430;6.806;2023-11-21T07:43:44;9.68;;;5.63;;
46613;SDS011;32338;50.430;6.806;2023-11-21T07:46:12;15.20;;;5.55;;
46613;SDS011;32338;50.430;6.806;2023-11-21T07:48:40;12.55;;;5.00;;
46613;SDS011;32338;50.430;6.806;2023-11-21T07:51:08;14.05;;;5.28;;
46613;SDS011;32338;50.430;6.806;2023-11-21T07:53:35;13.80;;;6.60;;
46613;SDS011;32338;50.430;6.806;2023-11-21T07:56:02;18.27;;;9.60;;
46613;SDS011;32338;50.430;6.806;2023-11-21T07:58:29;15.80;;;7.60;;
46613;SDS011;32338;50.430;6.806;2023-11-21T08:00:58;16.90;;;8.10;;
46613;SDS011;32338;50.430;6.806;2023-11-21T08:03:26;14.45;;;6.68;;
46613;SDS011;32338;50.430;6.806;2023-11-21T08:05:54;12.40;;;6.18;;
46613;SDS011;32338;50.430;6.806;2023-11-21T08:08:21;10.80;;;6.38;;
46613;SDS011;32338;50.430;6.806;2023-11-21T08:10:48;22.80;;;7.38;;
46613;SDS011;32338;50.430;6.806;2023-11-21T08:13:21;20.10;;;7.28;;
46613;SDS011;32338;50.430;6.806;2023-11-21T08:15:48;16.75;;;8.55;;
46613;SDS011;32338;50.430;6.806;2023-11-21T08:18:14;12.98;;;6.50;;
46613;SDS011;32338;50.430;6.806;2023-11-21T08:20:43;16.00;;;7.20;;
46613;SDS011;32338;50.430;6.806;2023-11-21T08:23:12;18.25;;;7.07;;
46613;SDS011;32338;50.430;6.806;2023-11-21T08:25:40;15.60;;;7.30;;
46613;SDS011;32338;50.430;6.806;2023-11-21T08:28:07;15.18;;;6.57;;
46613;SDS011;32338;50.430;6.806;2023-11-21T08:30:34;15.23;;;7.25;;
46613;SDS011;32338;50.430;6.806;2023-11-21T08:33:00;11.02;;;6.50;;
46613;SDS011;32338;50.430;6.806;2023-11-21T08:35:28;16.77;;;6.78;;
46613;SDS011;32338;50.430;6.806;2023-11-21T08:37:56;15.65;;;6.82;;
46613;SDS011;32338;50.430;6.806;2023-11-21T08:40:22;13.13;;;6.47;;
46613;SDS011;32338;50.430;6.806;2023-11-21T08:42:50;27.67;;;11.82;;
46613;SDS011;32338;50.430;6.806;2023-11-21T08:45:17;13.40;;;7.60;;
46613;SDS011;32338;50.430;6.806;2023-11-21T08:47:44;20.75;;;8.55;;
46613;SDS011;32338;50.430;6.806;2023-11-21T08:50:11;19.75;;;7.53;;
46613;SDS011;32338;50.430;6.806;2023-11-21T08:52:38;14.70;;;7.15;;
46613;SDS011;32338;50.430;6.806;2023-11-21T08:55:07;19.33;;;8.00;;
46613;SDS011;32338;50.430;6.806;2023-11-21T08:57:34;11.88;;;6.78;;
46613;SDS011;32338;50.430;6.806;2023-11-21T09:00:01;14.23;;;7.18;;
46613;SDS011;32338;50.430;6.806;2023-11-21T09:02:28;18.73;;;7.53;;
46613;SDS011;32338;50.430;6.806;2023-11-21T09:04:54;10.23;;;6.63;;
46613;SDS011;32338;50.430;6.806;2023-11-21T09:07:21;19.00;;;6.68;;
46613;SDS011;32338;50.430;6.806;2023-11-21T09:09:48;15.18;;;7.10;;
46613;SDS011;32338;50.430;6.806;2023-11-21T09:12:16;14.57;;;8.25;;
46613;SDS011;32338;50.430;6.806;2023-11-21T09:14:44;15.45;;;7.25;;
46613;SDS011;32338;50.430;6.806;2023-11-21T09:17:10;16.73;;;7.97;;
46613;SDS011;32338;50.430;6.806;2023-11-21T09:19:37;23.42;;;9.75;;
46613;SDS011;32338;50.430;6.806;2023-11-21T09:22:04;16.35;;;8.45;;
46613;SDS011;32338;50.430;6.806;2023-11-21T09:24:31;17.35;;;9.40;;
46613;SDS011;32338;50.430;6.806;2023-11-21T09:26:57;26.38;;;10.32;;
46613;SDS011;32338;50.430;6.806;2023-11-21T09:29:26;15.93;;;10.02;;
46613;SDS011;32338;50.430;6.806;2023-11-21T09:31:53;23.90;;;10.73;;
46613;SDS011;32338;50.430;6.806;2023-11-21T09:34:20;27.05;;;11.00;;
46613;SDS011;32338;50.430;6.806;2023-11-21T09:36:46;26.90;;;9.88;;
46613;SDS011;32338;50.430;6.806;2023-11-21T09:39:13;18.92;;;10.10;;
46613;SDS011;32338;50.430;6.806;2023-11-21T09:41:42;19.92;;;9.60;;
46613;SDS011;32338;50.430;6.806;2023-11-21T09:44:11;18.90;;;8.90;;
46613;SDS011;32338;50.430;6.806;2023-11-21T09:46:41;20.00;;;7.85;;
46613;SDS011;32338;50.430;6.806;2023-11-21T09:49:09;21.98;;;6.82;;
46613;SDS011;32338;50.430;6.806;2023-11-21T09:51:38;18.83;;;7.20;;
46613;SDS011;32338;50.430;6.806;2023-11-21T09:54:06;15.27;;;7.72;;
46613;SDS011;32338;50.430;6.806;2023-11-21T09:56:34;16.40;;;7.82;;
46613;SDS011;32338;50.430;6.806;2023-11-21T09:59:02;14.80;;;8.10;;
46613;SDS011;32338;50.430;6.806;2023-11-21T10:01:32;14.73;;;6.97;;
46613;SDS011;32338;50.430;6.806;2023-11-21T10:04:00;17.90;;;7.72;;
46613;SDS011;32338;50.430;6.806;2023-11-21T10:06:27;17.63;;;7.90;;
46613;SDS011;32338;50.430;6.806;2023-11-21T10:08:56;19.05;;;7.35;;
46613;SDS011;32338;50.430;6.806;2023-11-21T10:11:24;11.38;;;8.32;;
46613;SDS011;32338;50.430;6.806;2023-11-21T10:13:51;14.07;;;6.95;;
46613;SDS011;32338;50.430;6.806;2023-11-21T10:16:19;12.43;;;6.95;;
46613;SDS011;32338;50.430;6.806;2023-11-21T10:18:48;12.13;;;6.70;;
46613;SDS011;32338;50.430;6.806;2023-11-21T10:21:20;11.52;;;6.88;;
46613;SDS011;32338;50.430;6.806;2023-11-21T10:23:47;15.23;;;7.55;;
46613;SDS011;32338;50.430;6.806;2023-11-21T10:26:14;12.20;;;7.03;;
46613;SDS011;32338;50.430;6.806;2023-11-21T10:28:41;17.75;;;7.60;;
46613;SDS011;32338;50.430;6.806;2023-11-21T10:31:08;13.20;;;6.88;;
46613;SDS011;32338;50.430;6.806;2023-11-21T10:33:34;10.90;;;6.10;;
46613;SDS011;32338;50.430;6.806;2023-11-21T10:36:01;12.30;;;6.68;;
46613;SDS011;32338;50.430;6.806;2023-11-21T10:38:29;24.83;;;6.95;;
46613;SDS011;32338;50.430;6.806;2023-11-21T10:41:02;16.40;;;6.80;;
46613;SDS011;32338;50.430;6.806;2023-11-21T10:43:32;9.77;;;6.20;;
46613;SDS011;32338;50.430;6.806;2023-11-21T10:45:58;9.98;;;5.93;;
46613;SDS011;32338;50.430;6.806;2023-11-21T10:48:25;14.93;;;5.78;;
46613;SDS011;32338;50.430;6.806;2023-11-21T10:50:52;9.93;;;5.90;;
46613;SDS011;32338;50.430;6.806;2023-11-21T10:53:19;9.20;;;5.50;;
46613;SDS011;32338;50.430;6.806;2023-11-21T10:55:47;7.15;;;4.55;;
46613;SDS011;32338;50.430;6.806;2023-11-21T10:58:14;10.20;;;5.32;;
46613;SDS011;32338;50.430;6.806;2023-11-21T11:00:42;13.18;;;5.50;;
46613;SDS011;32338;50.430;6.806;2023-11-21T11:03:11;6.97;;;4.90;;
46613;SDS011;32338;50.430;6.806;2023-11-21T11:05:39;11.00;;;5.15;;
46613;SDS011;32338;50.430;6.806;2023-11-21T11:08:11;11.65;;;5.97;;
46613;SDS011;32338;50.430;6.806;2023-11-21T11:10:43;6.53;;;4.57;;
46613;SDS011;32338;50.430;6.806;2023-11-21T11:13:13;11.25;;;4.45;;
46613;SDS011;32338;50.430;6.806;2023-11-21T11:15:40;8.05;;;4.20;;
46613;SDS011;32338;50.430;6.806;2023-11-21T11:18:09;6.78;;;4.05;;
46613;SDS011;32338;50.430;6.806;2023-11-21T11:20:38;7.72;;;3.78;;
46613;SDS011;32338;50.430;6.806;2023-11-21T11:23:13;8.27;;;4.05;;
46613;SDS011;32338;50.430;6.806;2023-11-21T11:25:57;6.60;;;3.60;;
46613;SDS011;32338;50.430;6.806;2023-11-21T11:28:38;13.57;;;4.00;;
46613;SDS011;32338;50.430;6.806;2023-11-21T11:31:14;6.30;;;3.65;;
46613;SDS011;32338;50.430;6.806;2023-11-21T11:33:52;5.35;;;3.03;;
46613;SDS011;32338;50.430;6.806;2023-11-21T11:36:25;9.65;;;3.60;;
46613;SDS011;32338;50.430;6.806;2023-11-21T11:38:54;8.40;;;3.40;;
46613;SDS011;32338;50.430;6.806;2023-11-21T11:41:24;6.68;;;3.63;;
46613;SDS011;32338;50.430;6.806;2023-11-21T11:43:54;4.35;;;3.40;;
46613;SDS011;32338;50.430;6.806;2023-11-21T11:46:20;7.10;;;4.07;;
46613;SDS011;32338;50.430;6.806;2023-11-21T11:49:06;8.70;;;3.90;;
46613;SDS011;32338;50.430;6.806;2023-11-21T11:51:33;10.75;;;4.30;;
46613;SDS011;32338;50.430;6.806;2023-11-21T11:54:01;8.80;;;3.30;;
46613;SDS011;32338;50.430;6.806;2023-11-21T11:56:29;8.30;;;3.35;;
46613;SDS011;32338;50.430;6.806;2023-11-21T11:59:00;9.07;;;3.15;;
46613;SDS011;32338;50.430;6.806;2023-11-21T12:01:29;6.32;;;2.50;;
46613;SDS011;32338;50.430;6.806;2023-11-21T12:07:03;6.28;;;2.03;;
46613;SDS011;32338;50.430;6.806;2023-11-21T12:09:32;7.32;;;3.20;;
46613;SDS011;32338;50.430;6.806;2023-11-21T12:11:59;6.47;;;2.88;;
46613;SDS011;32338;50.430;6.806;2023-11-21T12:14:27;4.68;;;2.70;;
46613;SDS011;32338;50.430;6.806;2023-11-21T12:16:54;6.80;;;2.92;;
46613;SDS011;32338;50.430;6.806;2023-11-21T12:19:21;5.47;;;2.53;;
46613;SDS011;32338;50.430;6.806;2023-11-21T12:21:48;10.93;;;3.42;;
46613;SDS011;32338;50.430;6.806;2023-11-21T12:24:15;8.75;;;3.00;;
46613;SDS011;32338;50.430;6.806;2023-11-21T12:26:43;6.53;;;2.97;;
46613;SDS011;32338;50.430;6.806;2023-11-21T12:29:10;6.03;;;3.05;;
46613;SDS011;32338;50.430;6.806;2023-11-21T12:31:38;6.00;;;2.85;;
46613;SDS011;32338;50.430;6.806;2023-11-21T12:34:05;10.32;;;3.47;;
46613;SDS011;32338;50.430;6.806;2023-11-21T12:36:32;9.85;;;3.78;;
46613;SDS011;32338;50.430;6.806;2023-11-21T12:38:59;10.30;;;3.78;;
46613;SDS011;32338;50.430;6.806;2023-11-21T12:41:27;7.82;;;3.53;;
46613;SDS011;32338;50.430;6.806;2023-11-21T12:43:54;8.80;;;3.50;;
46613;SDS011;32338;50.430;6.806;2023-11-21T12:46:22;7.28;;;3.20;;
46613;SDS011;32338;50.430;6.806;2023-11-21T12:48:52;6.28;;;3.05;;
46613;SDS011;32338;50.430;6.806;2023-11-21T12:51:19;8.23;;;3.53;;
46613;SDS011;32338;50.430;6.806;2023-11-21T12:53:47;9.93;;;2.90;;
46613;SDS011;32338;50.430;6.806;2023-11-21T12:56:14;6.45;;;3.28;;
46613;SDS011;32338;50.430;6.806;2023-11-21T12:58:44;10.88;;;3.20;;
46613;SDS011;32338;50.430;6.806;2023-11-21T13:01:12;9.02;;;3.00;;
46613;SDS011;32338;50.430;6.806;2023-11-21T13:03:45;9.93;;;3.40;;
46613;SDS011;32338;50.430;6.806;2023-11-21T13:06:15;12.55;;;3.50;;
46613;SDS011;32338;50.430;6.806;2023-11-21T13:08:43;9.23;;;3.63;;
46613;SDS011;32338;50.430;6.806;2023-11-21T13:11:10;5.45;;;3.33;;
46613;SDS011;32338;50.430;6.806;2023-11-21T13:13:40;10.00;;;3.97;;
46613;SDS011;32338;50.430;6.806;2023-11-21T13:16:07;11.43;;;3.72;;
46613;SDS011;32338;50.430;6.806;2023-11-21T13:18:34;8.10;;;3.42;;
46613;SDS011;32338;50.430;6.806;2023-11-21T13:21:02;15.30;;;3.88;;
46613;SDS011;32338;50.430;6.806;2023-11-21T13:23:36;14.48;;;4.05;;
46613;SDS011;32338;50.430;6.806;2023-11-21T13:26:03;7.50;;;4.05;;
46613;SDS011;32338;50.430;6.806;2023-11-21T13:28:30;8.27;;;4.00;;
46613;SDS011;32338;50.430;6.806;2023-11-21T13:30:58;7.55;;;4.22;;
46613;SDS011;32338;50.430;6.806;2023-11-21T13:33:28;14.15;;;4.43;;
46613;SDS011;32338;50.430;6.806;2023-11-21T13:35:55;11.90;;;4.75;;
46613;SDS011;32338;50.430;6.806;2023-11-21T13:38:22;9.13;;;4.78;;
46613;SDS011;32338;50.430;6.806;2023-11-21T13:40:51;14.50;;;5.05;;
46613;SDS011;32338;50.430;6.806;2023-11-21T13:43:20;10.23;;;4.47;;
46613;SDS011;32338;50.430;6.806;2023-11-21T13:45:49;11.63;;;4.82;;
46613;SDS011;32338;50.430;6.806;2023-11-21T13:48:20;8.02;;;4.55;;
46613;SDS011;32338;50.430;6.806;2023-11-21T13:50:53;15.77;;;4.63;;
46613;SDS011;32338;50.430;6.806;2023-11-21T13:53:23;7.75;;;4.22;;
46613;SDS011;32338;50.430;6.806;2023-11-21T13:55:52;14.23;;;5.00;;
46613;SDS011;32338;50.430;6.806;2023-11-21T13:58:19;10.85;;;5.03;;
46613;SDS011;32338;50.430;6.806;2023-11-21T14:00:49;12.27;;;4.85;;
46613;SDS011;32338;50.430;6.806;2023-11-21T14:03:21;13.05;;;5.60;;
46613;SDS011;32338;50.430;6.806;2023-11-21T14:05:48;7.78;;;4.78;;
46613;SDS011;32338;50.430;6.806;2023-11-21T14:08:16;16.38;;;5.00;;
46613;SDS011;32338;50.430;6.806;2023-11-21T14:10:45;15.30;;;5.63;;
46613;SDS011;32338;50.430;6.806;2023-11-21T14:13:17;10.15;;;4.38;;
46613;SDS011;32338;50.430;6.806;2023-11-21T14:15:48;15.52;;;5.53;;
46613;SDS011;32338;50.430;6.806;2023-11-21T14:18:17;10.00;;;5.43;;
46613;SDS011;32338;50.430;6.806;2023-11-21T14:20:52;9.10;;;4.60;;
46613;SDS011;32338;50.430;6.806;2023-11-21T14:23:19;13.25;;;4.90;;
46613;SDS011;32338;50.430;6.806;2023-11-21T14:25:46;17.92;;;4.68;;
46613;SDS011;32338;50.430;6.806;2023-11-21T14:28:13;16.63;;;5.93;;
46613;SDS011;32338;50.430;6.806;2023-11-21T14:30:41;11.10;;;4.60;;
46613;SDS011;32338;50.430;6.806;2023-11-21T14:33:08;17.73;;;5.35;;
46613;SDS011;32338;50.430;6.806;2023-11-21T14:35:36;9.85;;;4.00;;
46613;SDS011;32338;50.430;6.806;2023-11-21T14:38:03;19.42;;;5.60;;
46613;SDS011;32338;50.430;6.806;2023-11-21T14:40:30;14.75;;;4.85;;
46613;SDS011;32338;50.430;6.806;2023-11-21T14:42:58;17.85;;;5.82;;
46613;SDS011;32338;50.430;6.806;2023-11-21T14:45:25;18.00;;;5.30;;
46613;SDS011;32338;50.430;6.806;2023-11-21T14:47:55;21.00;;;5.43;;
46613;SDS011;32338;50.430;6.806;2023-11-21T14:50:31;11.90;;;5.35;;